sensor_id;sensor_type;location;lat;lon;timestamp;P1;durP1;ratioP1;P2;durP2;ratioP2
38779;SDS011;29273;49.962;9.768;2023-08-20T00:02:02;3.00;;;2.72;;
38779;SDS011;29273;49.962;9.768;2023-08-20T00:04:30;3.00;;;2.70;;
38779;SDS011;29273;49.962;9.768;2023-08-20T00:06:56;2.72;;;2.53;;
38779;SDS011;29273;49.962;9.768;2023-08-20T00:09:22;6.45;;;3.08;;
38779;SDS011;29273;49.962;9.768;2023-08-20T00:11:49;3.20;;;2.90;;
38779;SDS011;29273;49.962;9.768;2023-08-20T00:14:15;3.50;;;2.72;;
38779;SDS011;29273;49.962;9.768;2023-08-20T00:16:42;3.20;;;2.90;;
38779;SDS011;29273;49.962;9.768;2023-08-20T00:19:08;2.83;;;2.58;;
38779;SDS011;29273;49.962;9.768;2023-08-20T00:21:34;3.58;;;3.00;;
38779;SDS011;29273;49.962;9.768;2023-08-20T00:24:00;2.60;;;2.40;;
38779;SDS011;29273;49.962;9.768;2023-08-20T00:26:26;2.80;;;2.60;;
38779;SDS011;29273;49.962;9.768;2023-08-20T00:28:51;2.67;;;2.47;;
38779;SDS011;29273;49.962;9.768;2023-08-20T00:31:17;2.97;;;2.67;;
38779;SDS011;29273;49.962;9.768;2023-08-20T00:33:42;3.00;;;2.42;;
38779;SDS011;29273;49.962;9.768;2023-08-20T00:36:08;2.97;;;2.40;;
38779;SDS011;29273;49.962;9.768;2023-08-20T00:38:34;2.53;;;2.33;;
38779;SDS011;29273;49.962;9.768;2023-08-20T00:41:01;2.95;;;2.75;;
38779;SDS011;29273;49.962;9.768;2023-08-20T00:43:26;2.50;;;2.30;;
38779;SDS011;29273;49.962;9.768;2023-08-20T00:45:52;4.07;;;2.42;;
38779;SDS011;29273;49.962;9.768;2023-08-20T00:48:17;3.70;;;2.47;;
38779;SDS011;29273;49.962;9.768;2023-08-20T00:50:43;4.00;;;2.50;;
38779;SDS011;29273;49.962;9.768;2023-08-20T00:53:10;2.60;;;2.35;;
38779;SDS011;29273;49.962;9.768;2023-08-20T00:55:38;2.70;;;2.50;;
38779;SDS011;29273;49.962;9.768;2023-08-20T00:58:04;2.45;;;2.25;;
38779;SDS011;29273;49.962;9.768;2023-08-20T01:00:32;2.70;;;2.50;;
38779;SDS011;29273;49.962;9.768;2023-08-20T01:02:57;2.97;;;2.65;;
38779;SDS011;29273;49.962;9.768;2023-08-20T01:05:23;2.72;;;2.45;;
38779;SDS011;29273;49.962;9.768;2023-08-20T01:08:04;2.70;;;2.35;;
38779;SDS011;29273;49.962;9.768;2023-08-20T01:10:42;3.22;;;2.70;;
38779;SDS011;29273;49.962;9.768;2023-08-20T01:13:17;2.42;;;2.22;;
38779;SDS011;29273;49.962;9.768;2023-08-20T01:15:43;3.53;;;2.65;;
38779;SDS011;29273;49.962;9.768;2023-08-20T01:18:08;2.88;;;2.58;;
38779;SDS011;29273;49.962;9.768;2023-08-20T01:20:36;2.88;;;2.38;;
38779;SDS011;29273;49.962;9.768;2023-08-20T01:28:41;2.80;;;2.50;;
38779;SDS011;29273;49.962;9.768;2023-08-20T01:31:09;2.47;;;2.28;;
38779;SDS011;29273;49.962;9.768;2023-08-20T01:33:36;2.55;;;2.35;;
38779;SDS011;29273;49.962;9.768;2023-08-20T01:36:01;3.00;;;2.50;;
38779;SDS011;29273;49.962;9.768;2023-08-20T01:38:27;2.60;;;2.40;;
38779;SDS011;29273;49.962;9.768;2023-08-20T01:40:52;2.90;;;2.67;;
38779;SDS011;29273;49.962;9.768;2023-08-20T01:43:18;2.83;;;2.45;;
38779;SDS011;29273;49.962;9.768;2023-08-20T01:45:43;3.10;;;2.60;;
38779;SDS011;29273;49.962;9.768;2023-08-20T01:48:09;2.63;;;2.42;;
38779;SDS011;29273;49.962;9.768;2023-08-20T01:50:35;3.03;;;2.80;;
38779;SDS011;29273;49.962;9.768;2023-08-20T01:53:01;2.95;;;2.70;;
38779;SDS011;29273;49.962;9.768;2023-08-20T01:55:28;3.75;;;2.70;;
38779;SDS011;29273;49.962;9.768;2023-08-20T01:57:54;2.55;;;2.35;;
38779;SDS011;29273;49.962;9.768;2023-08-20T02:00:19;2.53;;;2.33;;
38779;SDS011;29273;49.962;9.768;2023-08-20T02:02:45;2.95;;;2.50;;
38779;SDS011;29273;49.962;9.768;2023-08-20T02:05:10;2.78;;;2.58;;
38779;SDS011;29273;49.962;9.768;2023-08-20T02:07:37;2.60;;;2.40;;
38779;SDS011;29273;49.962;9.768;2023-08-20T02:10:03;2.88;;;2.58;;
38779;SDS011;29273;49.962;9.768;2023-08-20T02:12:29;2.78;;;2.53;;
38779;SDS011;29273;49.962;9.768;2023-08-20T02:14:55;2.75;;;2.55;;
38779;SDS011;29273;49.962;9.768;2023-08-20T02:17:21;2.92;;;2.70;;
38779;SDS011;29273;49.962;9.768;2023-08-20T02:19:48;2.63;;;2.42;;
38779;SDS011;29273;49.962;9.768;2023-08-20T02:22:14;3.50;;;2.58;;
38779;SDS011;29273;49.962;9.768;2023-08-20T02:24:39;2.63;;;2.42;;
38779;SDS011;29273;49.962;9.768;2023-08-20T02:27:05;3.55;;;2.50;;
38779;SDS011;29273;49.962;9.768;2023-08-20T02:29:30;2.70;;;2.50;;
38779;SDS011;29273;49.962;9.768;2023-08-20T02:31:56;3.30;;;2.70;;
38779;SDS011;29273;49.962;9.768;2023-08-20T02:34:22;3.55;;;2.70;;
38779;SDS011;29273;49.962;9.768;2023-08-20T02:36:47;2.63;;;2.42;;
38779;SDS011;29273;49.962;9.768;2023-08-20T02:39:13;3.22;;;2.90;;
38779;SDS011;29273;49.962;9.768;2023-08-20T02:41:40;2.95;;;2.75;;
38779;SDS011;29273;49.962;9.768;2023-08-20T02:44:08;3.03;;;2.72;;
38779;SDS011;29273;49.962;9.768;2023-08-20T02:46:33;2.80;;;2.60;;
38779;SDS011;29273;49.962;9.768;2023-08-20T02:48:59;2.90;;;2.60;;
38779;SDS011;29273;49.962;9.768;2023-08-20T02:51:26;2.97;;;2.78;;
38779;SDS011;29273;49.962;9.768;2023-08-20T02:53:52;3.10;;;2.80;;
38779;SDS011;29273;49.962;9.768;2023-08-20T02:56:17;2.80;;;2.60;;
38779;SDS011;29273;49.962;9.768;2023-08-20T02:58:43;2.50;;;2.30;;
38779;SDS011;29273;49.962;9.768;2023-08-20T03:01:17;3.28;;;2.63;;
38779;SDS011;29273;49.962;9.768;2023-08-20T03:03:44;2.50;;;2.30;;
38779;SDS011;29273;49.962;9.768;2023-08-20T03:06:09;3.53;;;2.65;;
38779;SDS011;29273;49.962;9.768;2023-08-20T03:08:35;2.92;;;2.70;;
38779;SDS011;29273;49.962;9.768;2023-08-20T03:11:00;4.47;;;2.88;;
38779;SDS011;29273;49.962;9.768;2023-08-20T03:13:26;3.25;;;2.90;;
38779;SDS011;29273;49.962;9.768;2023-08-20T03:15:51;2.85;;;2.58;;
38779;SDS011;29273;49.962;9.768;2023-08-20T03:18:17;3.25;;;2.70;;
38779;SDS011;29273;49.962;9.768;2023-08-20T03:20:42;2.97;;;2.70;;
38779;SDS011;29273;49.962;9.768;2023-08-20T03:23:07;2.97;;;2.67;;
38779;SDS011;29273;49.962;9.768;2023-08-20T03:25:33;3.22;;;2.72;;
38779;SDS011;29273;49.962;9.768;2023-08-20T03:27:59;3.08;;;2.80;;
38779;SDS011;29273;49.962;9.768;2023-08-20T03:30:25;4.70;;;2.85;;
38779;SDS011;29273;49.962;9.768;2023-08-20T03:32:50;2.70;;;2.50;;
38779;SDS011;29273;49.962;9.768;2023-08-20T03:35:15;3.70;;;2.88;;
38779;SDS011;29273;49.962;9.768;2023-08-20T03:37:41;3.25;;;2.70;;
38779;SDS011;29273;49.962;9.768;2023-08-20T03:40:07;2.65;;;2.40;;
38779;SDS011;29273;49.962;9.768;2023-08-20T03:42:33;3.00;;;2.70;;
38779;SDS011;29273;49.962;9.768;2023-08-20T03:44:58;3.30;;;2.95;;
38779;SDS011;29273;49.962;9.768;2023-08-20T03:47:23;2.65;;;2.45;;
38779;SDS011;29273;49.962;9.768;2023-08-20T03:49:49;3.05;;;2.53;;
38779;SDS011;29273;49.962;9.768;2023-08-20T03:52:14;2.95;;;2.65;;
38779;SDS011;29273;49.962;9.768;2023-08-20T03:54:41;2.63;;;2.38;;
38779;SDS011;29273;49.962;9.768;2023-08-20T03:57:07;3.17;;;2.88;;
38779;SDS011;29273;49.962;9.768;2023-08-20T03:59:33;2.70;;;2.50;;
38779;SDS011;29273;49.962;9.768;2023-08-20T04:01:58;2.78;;;2.58;;
38779;SDS011;29273;49.962;9.768;2023-08-20T04:04:24;2.80;;;2.38;;
38779;SDS011;29273;49.962;9.768;2023-08-20T04:06:50;3.30;;;2.75;;
38779;SDS011;29273;49.962;9.768;2023-08-20T04:09:16;2.90;;;2.70;;
38779;SDS011;29273;49.962;9.768;2023-08-20T04:11:42;2.50;;;2.30;;
38779;SDS011;29273;49.962;9.768;2023-08-20T04:14:08;3.50;;;2.55;;
38779;SDS011;29273;49.962;9.768;2023-08-20T04:16:34;2.72;;;2.53;;
38779;SDS011;29273;49.962;9.768;2023-08-20T04:19:00;2.50;;;2.30;;
38779;SDS011;29273;49.962;9.768;2023-08-20T04:21:25;3.60;;;2.42;;
38779;SDS011;29273;49.962;9.768;2023-08-20T04:23:51;2.63;;;2.42;;
38779;SDS011;29273;49.962;9.768;2023-08-20T04:26:16;3.40;;;2.65;;
38779;SDS011;29273;49.962;9.768;2023-08-20T04:28:42;3.22;;;2.83;;
38779;SDS011;29273;49.962;9.768;2023-08-20T04:31:07;3.05;;;2.72;;
38779;SDS011;29273;49.962;9.768;2023-08-20T04:33:46;2.83;;;2.63;;
38779;SDS011;29273;49.962;9.768;2023-08-20T04:36:15;2.97;;;2.65;;
38779;SDS011;29273;49.962;9.768;2023-08-20T04:38:41;3.70;;;2.90;;
38779;SDS011;29273;49.962;9.768;2023-08-20T04:41:07;2.63;;;2.42;;
38779;SDS011;29273;49.962;9.768;2023-08-20T04:43:32;3.33;;;2.78;;
38779;SDS011;29273;49.962;9.768;2023-08-20T04:45:59;3.17;;;2.10;;
38779;SDS011;29273;49.962;9.768;2023-08-20T04:48:27;3.00;;;2.70;;
38779;SDS011;29273;49.962;9.768;2023-08-20T04:50:54;3.10;;;2.80;;
38779;SDS011;29273;49.962;9.768;2023-08-20T04:53:19;2.80;;;2.60;;
38779;SDS011;29273;49.962;9.768;2023-08-20T04:55:46;2.80;;;2.50;;
38779;SDS011;29273;49.962;9.768;2023-08-20T04:58:12;2.85;;;2.55;;
38779;SDS011;29273;49.962;9.768;2023-08-20T05:00:38;3.13;;;2.75;;
38779;SDS011;29273;49.962;9.768;2023-08-20T05:03:08;4.00;;;2.45;;
38779;SDS011;29273;49.962;9.768;2023-08-20T05:05:34;2.58;;;2.38;;
38779;SDS011;29273;49.962;9.768;2023-08-20T05:08:00;3.10;;;2.80;;
38779;SDS011;29273;49.962;9.768;2023-08-20T05:10:26;3.03;;;2.72;;
38779;SDS011;29273;49.962;9.768;2023-08-20T05:12:51;4.28;;;2.83;;
38779;SDS011;29273;49.962;9.768;2023-08-20T05:15:17;2.65;;;2.28;;
38779;SDS011;29273;49.962;9.768;2023-08-20T05:17:42;2.90;;;2.58;;
38779;SDS011;29273;49.962;9.768;2023-08-20T05:20:08;2.63;;;2.42;;
38779;SDS011;29273;49.962;9.768;2023-08-20T05:22:35;2.95;;;2.67;;
38779;SDS011;29273;49.962;9.768;2023-08-20T05:25:01;3.08;;;2.80;;
38779;SDS011;29273;49.962;9.768;2023-08-20T05:27:27;3.13;;;2.65;;
38779;SDS011;29273;49.962;9.768;2023-08-20T05:29:53;3.35;;;2.60;;
38779;SDS011;29273;49.962;9.768;2023-08-20T05:32:19;2.70;;;2.50;;
38779;SDS011;29273;49.962;9.768;2023-08-20T05:34:45;2.75;;;2.55;;
38779;SDS011;29273;49.962;9.768;2023-08-20T05:37:11;2.80;;;2.55;;
38779;SDS011;29273;49.962;9.768;2023-08-20T05:39:40;2.97;;;2.70;;
38779;SDS011;29273;49.962;9.768;2023-08-20T05:42:07;3.20;;;2.90;;
38779;SDS011;29273;49.962;9.768;2023-08-20T05:44:33;3.10;;;2.80;;
38779;SDS011;29273;49.962;9.768;2023-08-20T05:46:59;4.25;;;3.00;;
38779;SDS011;29273;49.962;9.768;2023-08-20T05:49:26;3.00;;;2.70;;
38779;SDS011;29273;49.962;9.768;2023-08-20T05:51:52;3.10;;;2.78;;
38779;SDS011;29273;49.962;9.768;2023-08-20T05:54:18;2.70;;;2.42;;
38779;SDS011;29273;49.962;9.768;2023-08-20T05:56:44;3.03;;;2.58;;
38779;SDS011;29273;49.962;9.768;2023-08-20T05:59:10;2.63;;;2.42;;
38779;SDS011;29273;49.962;9.768;2023-08-20T06:01:36;2.58;;;2.38;;
38779;SDS011;29273;49.962;9.768;2023-08-20T06:04:02;4.22;;;2.70;;
38779;SDS011;29273;49.962;9.768;2023-08-20T06:06:27;2.70;;;2.50;;
38779;SDS011;29273;49.962;9.768;2023-08-20T06:08:53;2.65;;;2.45;;
38779;SDS011;29273;49.962;9.768;2023-08-20T06:11:19;3.13;;;2.83;;
38779;SDS011;29273;49.962;9.768;2023-08-20T06:13:45;4.57;;;2.63;;
38779;SDS011;29273;49.962;9.768;2023-08-20T06:16:10;4.22;;;2.50;;
38779;SDS011;29273;49.962;9.768;2023-08-20T06:18:36;2.80;;;2.50;;
38779;SDS011;29273;49.962;9.768;2023-08-20T06:21:02;2.97;;;2.63;;
38779;SDS011;29273;49.962;9.768;2023-08-20T06:23:28;2.88;;;2.63;;
38779;SDS011;29273;49.962;9.768;2023-08-20T06:25:53;3.28;;;2.55;;
38779;SDS011;29273;49.962;9.768;2023-08-20T06:28:19;2.60;;;2.40;;
38779;SDS011;29273;49.962;9.768;2023-08-20T06:30:45;2.42;;;2.22;;
38779;SDS011;29273;49.962;9.768;2023-08-20T06:33:11;3.63;;;2.53;;
38779;SDS011;29273;49.962;9.768;2023-08-20T06:35:37;2.55;;;2.35;;
38779;SDS011;29273;49.962;9.768;2023-08-20T06:38:03;3.08;;;2.55;;
38779;SDS011;29273;49.962;9.768;2023-08-20T06:40:29;2.80;;;2.42;;
38779;SDS011;29273;49.962;9.768;2023-08-20T06:42:55;2.92;;;2.63;;
38779;SDS011;29273;49.962;9.768;2023-08-20T06:45:20;3.08;;;2.40;;
38779;SDS011;29273;49.962;9.768;2023-08-20T06:47:46;4.07;;;2.80;;
38779;SDS011;29273;49.962;9.768;2023-08-20T06:50:11;2.70;;;2.50;;
38779;SDS011;29273;49.962;9.768;2023-08-20T06:52:37;3.70;;;2.45;;
38779;SDS011;29273;49.962;9.768;2023-08-20T06:55:02;2.47;;;2.28;;
38779;SDS011;29273;49.962;9.768;2023-08-20T06:57:29;2.67;;;2.30;;
38779;SDS011;29273;49.962;9.768;2023-08-20T06:59:54;3.85;;;2.58;;
38779;SDS011;29273;49.962;9.768;2023-08-20T07:02:20;2.78;;;2.50;;
38779;SDS011;29273;49.962;9.768;2023-08-20T07:04:45;2.63;;;2.42;;
38779;SDS011;29273;49.962;9.768;2023-08-20T07:07:11;3.05;;;2.53;;
38779;SDS011;29273;49.962;9.768;2023-08-20T07:09:37;2.47;;;2.28;;
38779;SDS011;29273;49.962;9.768;2023-08-20T07:12:04;2.70;;;2.50;;
38779;SDS011;29273;49.962;9.768;2023-08-20T07:14:30;2.42;;;2.17;;
38779;SDS011;29273;49.962;9.768;2023-08-20T07:16:55;2.60;;;2.40;;
38779;SDS011;29273;49.962;9.768;2023-08-20T07:19:21;2.85;;;2.55;;
38779;SDS011;29273;49.962;9.768;2023-08-20T07:21:46;2.60;;;2.40;;
38779;SDS011;29273;49.962;9.768;2023-08-20T07:24:12;4.25;;;2.55;;
38779;SDS011;29273;49.962;9.768;2023-08-20T07:26:37;2.35;;;2.15;;
38779;SDS011;29273;49.962;9.768;2023-08-20T07:29:03;2.72;;;2.50;;
38779;SDS011;29273;49.962;9.768;2023-08-20T07:31:29;2.92;;;2.63;;
38779;SDS011;29273;49.962;9.768;2023-08-20T07:33:57;2.65;;;2.45;;
38779;SDS011;29273;49.962;9.768;2023-08-20T07:36:26;3.38;;;2.88;;
38779;SDS011;29273;49.962;9.768;2023-08-20T07:38:52;2.58;;;2.38;;
38779;SDS011;29273;49.962;9.768;2023-08-20T07:41:18;2.30;;;2.10;;
38779;SDS011;29273;49.962;9.768;2023-08-20T07:43:47;2.33;;;2.13;;
38779;SDS011;29273;49.962;9.768;2023-08-20T07:46:13;2.70;;;2.50;;
38779;SDS011;29273;49.962;9.768;2023-08-20T07:48:40;3.03;;;2.42;;
38779;SDS011;29273;49.962;9.768;2023-08-20T07:51:07;2.75;;;2.20;;
38779;SDS011;29273;49.962;9.768;2023-08-20T07:53:33;2.58;;;2.38;;
38779;SDS011;29273;49.962;9.768;2023-08-20T07:56:00;2.63;;;2.42;;
38779;SDS011;29273;49.962;9.768;2023-08-20T07:58:26;2.58;;;2.38;;
38779;SDS011;29273;49.962;9.768;2023-08-20T08:00:51;2.58;;;2.38;;
38779;SDS011;29273;49.962;9.768;2023-08-20T08:03:17;2.40;;;2.20;;
38779;SDS011;29273;49.962;9.768;2023-08-20T08:05:46;4.82;;;2.50;;
38779;SDS011;29273;49.962;9.768;2023-08-20T08:08:13;2.50;;;2.30;;
38779;SDS011;29273;49.962;9.768;2023-08-20T08:10:39;3.20;;;2.30;;
38779;SDS011;29273;49.962;9.768;2023-08-20T08:13:04;2.40;;;2.20;;
38779;SDS011;29273;49.962;9.768;2023-08-20T08:15:30;3.05;;;2.40;;
38779;SDS011;29273;49.962;9.768;2023-08-20T08:17:55;2.85;;;2.65;;
38779;SDS011;29273;49.962;9.768;2023-08-20T08:20:21;2.90;;;2.70;;
38779;SDS011;29273;49.962;9.768;2023-08-20T08:22:47;3.28;;;2.97;;
38779;SDS011;29273;49.962;9.768;2023-08-20T08:25:13;3.15;;;2.35;;
38779;SDS011;29273;49.962;9.768;2023-08-20T08:27:38;2.90;;;2.70;;
38779;SDS011;29273;49.962;9.768;2023-08-20T08:30:04;2.58;;;2.38;;
38779;SDS011;29273;49.962;9.768;2023-08-20T08:32:30;3.53;;;2.55;;
38779;SDS011;29273;49.962;9.768;2023-08-20T08:34:55;2.95;;;2.75;;
38779;SDS011;29273;49.962;9.768;2023-08-20T08:37:21;3.47;;;3.17;;
38779;SDS011;29273;49.962;9.768;2023-08-20T08:39:46;3.30;;;2.95;;
38779;SDS011;29273;49.962;9.768;2023-08-20T08:42:12;2.90;;;2.70;;
38779;SDS011;29273;49.962;9.768;2023-08-20T08:44:39;3.65;;;2.60;;
38779;SDS011;29273;49.962;9.768;2023-08-20T08:47:04;4.03;;;3.03;;
38779;SDS011;29273;49.962;9.768;2023-08-20T08:49:33;3.42;;;3.13;;
38779;SDS011;29273;49.962;9.768;2023-08-20T08:51:59;3.47;;;3.17;;
38779;SDS011;29273;49.962;9.768;2023-08-20T08:54:25;3.40;;;3.10;;
38779;SDS011;29273;49.962;9.768;2023-08-20T08:56:51;3.00;;;2.67;;
38779;SDS011;29273;49.962;9.768;2023-08-20T08:59:18;3.10;;;2.80;;
38779;SDS011;29273;49.962;9.768;2023-08-20T09:01:43;3.78;;;3.10;;
38779;SDS011;29273;49.962;9.768;2023-08-20T09:04:09;3.10;;;2.85;;
38779;SDS011;29273;49.962;9.768;2023-08-20T09:06:45;3.33;;;3.03;;
38779;SDS011;29273;49.962;9.768;2023-08-20T09:09:15;3.65;;;3.35;;
38779;SDS011;29273;49.962;9.768;2023-08-20T09:11:42;3.22;;;2.92;;
38779;SDS011;29273;49.962;9.768;2023-08-20T09:14:07;2.90;;;2.70;;
38779;SDS011;29273;49.962;9.768;2023-08-20T09:16:33;3.30;;;3.05;;
38779;SDS011;29273;49.962;9.768;2023-08-20T09:18:59;4.20;;;2.97;;
38779;SDS011;29273;49.962;9.768;2023-08-20T09:21:28;3.25;;;3.00;;
38779;SDS011;29273;49.962;9.768;2023-08-20T09:23:55;3.13;;;2.83;;
38779;SDS011;29273;49.962;9.768;2023-08-20T09:26:22;2.97;;;2.78;;
38779;SDS011;29273;49.962;9.768;2023-08-20T09:28:47;3.25;;;2.95;;
38779;SDS011;29273;49.962;9.768;2023-08-20T09:31:13;4.05;;;3.17;;
38779;SDS011;29273;49.962;9.768;2023-08-20T09:33:53;3.38;;;3.08;;
38779;SDS011;29273;49.962;9.768;2023-08-20T09:36:29;2.85;;;2.65;;
38779;SDS011;29273;49.962;9.768;2023-08-20T09:38:56;4.10;;;3.13;;
38779;SDS011;29273;49.962;9.768;2023-08-20T09:41:22;3.38;;;3.08;;
38779;SDS011;29273;49.962;9.768;2023-08-20T09:43:48;3.60;;;3.30;;
38779;SDS011;29273;49.962;9.768;2023-08-20T09:46:21;3.20;;;3.00;;
38779;SDS011;29273;49.962;9.768;2023-08-20T09:48:49;3.50;;;3.20;;
38779;SDS011;29273;49.962;9.768;2023-08-20T09:51:18;2.95;;;2.75;;
38779;SDS011;29273;49.962;9.768;2023-08-20T09:53:51;3.42;;;3.08;;
38779;SDS011;29273;49.962;9.768;2023-08-20T09:56:22;3.45;;;3.15;;
38779;SDS011;29273;49.962;9.768;2023-08-20T09:58:55;3.15;;;2.85;;
38779;SDS011;29273;49.962;9.768;2023-08-20T10:01:23;3.50;;;3.20;;
38779;SDS011;29273;49.962;9.768;2023-08-20T10:03:50;4.88;;;3.67;;
38779;SDS011;29273;49.962;9.768;2023-08-20T10:06:15;3.40;;;3.10;;
38779;SDS011;29273;49.962;9.768;2023-08-20T10:08:42;3.28;;;3.03;;
38779;SDS011;29273;49.962;9.768;2023-08-20T10:11:08;3.15;;;2.90;;
38779;SDS011;29273;49.962;9.768;2023-08-20T10:13:34;2.97;;;2.78;;
38779;SDS011;29273;49.962;9.768;2023-08-20T10:15:59;3.53;;;3.22;;
38779;SDS011;29273;49.962;9.768;2023-08-20T10:18:26;5.03;;;3.50;;
38779;SDS011;29273;49.962;9.768;2023-08-20T10:20:52;3.70;;;3.20;;
38779;SDS011;29273;49.962;9.768;2023-08-20T10:23:20;3.22;;;2.90;;
38779;SDS011;29273;49.962;9.768;2023-08-20T10:25:48;3.53;;;3.22;;
38779;SDS011;29273;49.962;9.768;2023-08-20T10:33:36;3.08;;;2.85;;
38779;SDS011;29273;49.962;9.768;2023-08-20T10:36:22;3.40;;;3.10;;
38779;SDS011;29273;49.962;9.768;2023-08-20T10:38:53;3.50;;;3.20;;
38779;SDS011;29273;49.962;9.768;2023-08-20T10:41:29;3.70;;;3.10;;
38779;SDS011;29273;49.962;9.768;2023-08-20T10:43:58;3.67;;;3.20;;
38779;SDS011;29273;49.962;9.768;2023-08-20T10:46:25;3.55;;;3.25;;
38779;SDS011;29273;49.962;9.768;2023-08-20T10:48:55;4.22;;;3.17;;
38779;SDS011;29273;49.962;9.768;2023-08-20T10:51:26;3.10;;;2.80;;
38779;SDS011;29273;49.962;9.768;2023-08-20T10:59:26;3.25;;;3.00;;
38779;SDS011;29273;49.962;9.768;2023-08-20T11:01:53;3.28;;;2.97;;
38779;SDS011;29273;49.962;9.768;2023-08-20T11:04:21;2.90;;;2.70;;
38779;SDS011;29273;49.962;9.768;2023-08-20T11:06:52;5.40;;;3.10;;
38779;SDS011;29273;49.962;9.768;2023-08-20T11:09:22;3.70;;;3.40;;
38779;SDS011;29273;49.962;9.768;2023-08-20T11:11:49;3.30;;;3.00;;
38779;SDS011;29273;49.962;9.768;2023-08-20T11:14:17;3.22;;;2.92;;
38779;SDS011;29273;49.962;9.768;2023-08-20T11:16:44;3.30;;;3.00;;
38779;SDS011;29273;49.962;9.768;2023-08-20T11:19:10;3.60;;;3.20;;
38779;SDS011;29273;49.962;9.768;2023-08-20T11:21:41;2.97;;;2.75;;
38779;SDS011;29273;49.962;9.768;2023-08-20T11:24:07;3.10;;;2.80;;
38779;SDS011;29273;49.962;9.768;2023-08-20T11:26:34;3.10;;;2.90;;
38779;SDS011;29273;49.962;9.768;2023-08-20T11:29:05;3.15;;;2.88;;
38779;SDS011;29273;49.962;9.768;2023-08-20T11:31:32;3.15;;;2.72;;
38779;SDS011;29273;49.962;9.768;2023-08-20T11:33:57;2.92;;;2.63;;
38779;SDS011;29273;49.962;9.768;2023-08-20T11:36:23;3.50;;;3.20;;
38779;SDS011;29273;49.962;9.768;2023-08-20T11:38:52;4.50;;;3.20;;
38779;SDS011;29273;49.962;9.768;2023-08-20T11:41:18;3.92;;;3.20;;
38779;SDS011;29273;49.962;9.768;2023-08-20T11:43:45;4.18;;;3.20;;
38779;SDS011;29273;49.962;9.768;2023-08-20T11:46:14;3.47;;;3.17;;
38779;SDS011;29273;49.962;9.768;2023-08-20T11:51:26;3.20;;;2.95;;
38779;SDS011;29273;49.962;9.768;2023-08-20T11:53:52;3.55;;;3.25;;
38779;SDS011;29273;49.962;9.768;2023-08-20T11:56:17;2.72;;;2.53;;
38779;SDS011;29273;49.962;9.768;2023-08-20T11:58:43;2.83;;;2.58;;
38779;SDS011;29273;49.962;9.768;2023-08-20T12:01:15;3.08;;;2.88;;
38779;SDS011;29273;49.962;9.768;2023-08-20T12:03:40;3.83;;;2.92;;
38779;SDS011;29273;49.962;9.768;2023-08-20T12:06:20;4.45;;;2.75;;
38779;SDS011;29273;49.962;9.768;2023-08-20T12:11:15;3.28;;;2.55;;
38779;SDS011;29273;49.962;9.768;2023-08-20T12:13:41;2.80;;;2.60;;
38779;SDS011;29273;49.962;9.768;2023-08-20T12:16:06;3.20;;;2.90;;
38779;SDS011;29273;49.962;9.768;2023-08-20T12:18:32;2.58;;;2.38;;
38779;SDS011;29273;49.962;9.768;2023-08-20T12:20:58;3.33;;;3.03;;
38779;SDS011;29273;49.962;9.768;2023-08-20T12:23:23;3.10;;;2.80;;
38779;SDS011;29273;49.962;9.768;2023-08-20T12:25:50;3.25;;;2.97;;
38779;SDS011;29273;49.962;9.768;2023-08-20T12:28:16;3.00;;;2.80;;
38779;SDS011;29273;49.962;9.768;2023-08-20T12:30:42;2.70;;;2.50;;
38779;SDS011;29273;49.962;9.768;2023-08-20T12:33:09;3.03;;;2.83;;
38779;SDS011;29273;49.962;9.768;2023-08-20T12:35:34;3.05;;;2.78;;
38779;SDS011;29273;49.962;9.768;2023-08-20T12:38:00;3.30;;;2.80;;
38779;SDS011;29273;49.962;9.768;2023-08-20T12:40:26;4.63;;;3.00;;
38779;SDS011;29273;49.962;9.768;2023-08-20T12:42:51;3.33;;;2.90;;
38779;SDS011;29273;49.962;9.768;2023-08-20T12:45:16;3.20;;;2.90;;
38779;SDS011;29273;49.962;9.768;2023-08-20T12:47:42;3.58;;;3.00;;
38779;SDS011;29273;49.962;9.768;2023-08-20T12:50:08;3.28;;;2.70;;
38779;SDS011;29273;49.962;9.768;2023-08-20T12:52:33;3.28;;;2.97;;
38779;SDS011;29273;49.962;9.768;2023-08-20T12:54:59;3.22;;;2.75;;
38779;SDS011;29273;49.962;9.768;2023-08-20T12:57:24;3.90;;;2.72;;
38779;SDS011;29273;49.962;9.768;2023-08-20T12:59:50;2.78;;;2.58;;
38779;SDS011;29273;49.962;9.768;2023-08-20T13:02:15;2.70;;;2.50;;
38779;SDS011;29273;49.962;9.768;2023-08-20T13:04:41;2.88;;;2.67;;
38779;SDS011;29273;49.962;9.768;2023-08-20T13:07:07;2.67;;;2.47;;
38779;SDS011;29273;49.962;9.768;2023-08-20T13:09:33;2.83;;;2.17;;
38779;SDS011;29273;49.962;9.768;2023-08-20T13:12:00;3.10;;;2.50;;
38779;SDS011;29273;49.962;9.768;2023-08-20T13:14:29;2.20;;;2.00;;
38779;SDS011;29273;49.962;9.768;2023-08-20T13:16:55;2.28;;;2.05;;
38779;SDS011;29273;49.962;9.768;2023-08-20T13:19:21;2.45;;;2.25;;
38779;SDS011;29273;49.962;9.768;2023-08-20T13:21:47;3.35;;;2.28;;
38779;SDS011;29273;49.962;9.768;2023-08-20T13:24:12;2.05;;;1.95;;
38779;SDS011;29273;49.962;9.768;2023-08-20T13:26:38;2.30;;;2.10;;
38779;SDS011;29273;49.962;9.768;2023-08-20T13:29:03;2.47;;;2.28;;
38779;SDS011;29273;49.962;9.768;2023-08-20T13:31:29;2.50;;;2.30;;
38779;SDS011;29273;49.962;9.768;2023-08-20T13:33:54;2.80;;;2.60;;
38779;SDS011;29273;49.962;9.768;2023-08-20T13:36:20;2.75;;;2.53;;
38779;SDS011;29273;49.962;9.768;2023-08-20T13:38:45;2.92;;;2.42;;
38779;SDS011;29273;49.962;9.768;2023-08-20T13:41:11;3.67;;;2.60;;
38779;SDS011;29273;49.962;9.768;2023-08-20T13:43:36;4.10;;;2.25;;
38779;SDS011;29273;49.962;9.768;2023-08-20T13:46:02;2.58;;;2.38;;
38779;SDS011;29273;49.962;9.768;2023-08-20T13:48:27;2.67;;;2.47;;
38779;SDS011;29273;49.962;9.768;2023-08-20T13:50:53;2.70;;;2.50;;
38779;SDS011;29273;49.962;9.768;2023-08-20T13:53:18;2.53;;;2.33;;
38779;SDS011;29273;49.962;9.768;2023-08-20T13:55:44;2.50;;;2.30;;
38779;SDS011;29273;49.962;9.768;2023-08-20T13:58:09;2.65;;;2.45;;
38779;SDS011;29273;49.962;9.768;2023-08-20T14:00:35;2.35;;;2.15;;
38779;SDS011;29273;49.962;9.768;2023-08-20T14:03:00;2.40;;;2.20;;
38779;SDS011;29273;49.962;9.768;2023-08-20T14:05:26;3.85;;;2.28;;
38779;SDS011;29273;49.962;9.768;2023-08-20T14:07:51;2.30;;;2.10;;
38779;SDS011;29273;49.962;9.768;2023-08-20T14:10:17;2.63;;;2.30;;
38779;SDS011;29273;49.962;9.768;2023-08-20T14:12:42;2.65;;;2.30;;
38779;SDS011;29273;49.962;9.768;2023-08-20T14:15:08;2.28;;;2.10;;
38779;SDS011;29273;49.962;9.768;2023-08-20T14:17:34;4.55;;;2.47;;
38779;SDS011;29273;49.962;9.768;2023-08-20T14:19:59;2.05;;;1.92;;
38779;SDS011;29273;49.962;9.768;2023-08-20T14:22:25;2.60;;;2.40;;
38779;SDS011;29273;49.962;9.768;2023-08-20T14:24:51;2.30;;;2.10;;
38779;SDS011;29273;49.962;9.768;2023-08-20T14:27:16;2.25;;;1.98;;
38779;SDS011;29273;49.962;9.768;2023-08-20T14:29:42;4.53;;;2.40;;
38779;SDS011;29273;49.962;9.768;2023-08-20T14:32:07;2.25;;;2.05;;
38779;SDS011;29273;49.962;9.768;2023-08-20T14:34:33;2.35;;;2.15;;
38779;SDS011;29273;49.962;9.768;2023-08-20T14:36:58;2.60;;;2.40;;
38779;SDS011;29273;49.962;9.768;2023-08-20T14:39:24;2.20;;;2.00;;
38779;SDS011;29273;49.962;9.768;2023-08-20T14:41:49;2.67;;;2.20;;
38779;SDS011;29273;49.962;9.768;2023-08-20T14:44:15;3.40;;;2.20;;
38779;SDS011;29273;49.962;9.768;2023-08-20T14:46:40;2.53;;;2.20;;
38779;SDS011;29273;49.962;9.768;2023-08-20T14:49:05;2.45;;;2.10;;
38779;SDS011;29273;49.962;9.768;2023-08-20T14:51:31;2.63;;;1.90;;
38779;SDS011;29273;49.962;9.768;2023-08-20T14:53:56;2.85;;;2.08;;
38779;SDS011;29273;49.962;9.768;2023-08-20T14:56:22;2.85;;;2.20;;
38779;SDS011;29273;49.962;9.768;2023-08-20T14:58:48;2.40;;;2.20;;
38779;SDS011;29273;49.962;9.768;2023-08-20T15:01:14;2.22;;;2.03;;
38779;SDS011;29273;49.962;9.768;2023-08-20T15:03:40;2.28;;;2.08;;
38779;SDS011;29273;49.962;9.768;2023-08-20T15:06:05;2.65;;;2.20;;